sensor_id;sensor_type;location;lat;lon;timestamp;P1;durP1;ratioP1;P2;durP2;ratioP2
71048;SDS011;58704;53.358;-6.238;2022-12-07T03:51:07;13.95;;;6.03;;
71048;SDS011;58704;53.358;-6.238;2022-12-07T03:53:50;11.50;;;5.13;;
71048;SDS011;58704;53.358;-6.238;2022-12-07T03:56:20;15.50;;;5.97;;
71048;SDS011;58704;53.358;-6.238;2022-12-07T03:58:45;8.57;;;4.93;;
71048;SDS011;58704;53.358;-6.238;2022-12-07T04:01:11;13.48;;;6.55;;
71048;SDS011;58704;53.358;-6.238;2022-12-07T04:03:37;13.97;;;5.90;;
71048;SDS011;58704;53.358;-6.238;2022-12-07T04:06:02;12.37;;;6.03;;
71048;SDS011;58704;53.358;-6.238;2022-12-07T04:08:28;12.15;;;5.57;;
71048;SDS011;58704;53.358;-6.238;2022-12-07T04:10:53;11.50;;;5.93;;
71048;SDS011;58704;53.358;-6.238;2022-12-07T04:13:19;12.50;;;5.60;;
71048;SDS011;58704;53.358;-6.238;2022-12-07T04:15:44;14.97;;;5.93;;
71048;SDS011;58704;53.358;-6.238;2022-12-07T04:18:10;13.07;;;5.53;;
71048;SDS011;58704;53.358;-6.238;2022-12-07T04:20:41;12.30;;;6.80;;
71048;SDS011;58704;53.358;-6.238;2022-12-07T04:23:06;13.30;;;5.88;;
71048;SDS011;58704;53.358;-6.238;2022-12-07T04:25:32;13.23;;;7.28;;
71048;SDS011;58704;53.358;-6.238;2022-12-07T04:27:57;14.07;;;7.03;;
71048;SDS011;58704;53.358;-6.238;2022-12-07T04:30:23;12.63;;;6.10;;
71048;SDS011;58704;53.358;-6.238;2022-12-07T04:32:48;10.55;;;7.03;;
71048;SDS011;58704;53.358;-6.238;2022-12-07T04:35:14;17.83;;;6.63;;
71048;SDS011;58704;53.358;-6.238;2022-12-07T04:37:40;14.68;;;6.80;;
71048;SDS011;58704;53.358;-6.238;2022-12-07T04:40:10;12.70;;;6.00;;
71048;SDS011;58704;53.358;-6.238;2022-12-07T04:42:36;15.50;;;6.28;;
71048;SDS011;58704;53.358;-6.238;2022-12-07T04:45:02;10.25;;;5.47;;
71048;SDS011;58704;53.358;-6.238;2022-12-07T04:47:28;13.05;;;7.13;;
71048;SDS011;58704;53.358;-6.238;2022-12-07T04:49:56;11.00;;;5.93;;
71048;SDS011;58704;53.358;-6.238;2022-12-07T04:52:22;11.05;;;5.88;;
71048;SDS011;58704;53.358;-6.238;2022-12-07T04:54:47;13.23;;;6.20;;
71048;SDS011;58704;53.358;-6.238;2022-12-07T04:57:13;11.77;;;5.37;;
71048;SDS011;58704;53.358;-6.238;2022-12-07T04:59:38;10.17;;;5.97;;
71048;SDS011;58704;53.358;-6.238;2022-12-07T05:02:04;12.10;;;5.67;;
71048;SDS011;58704;53.358;-6.238;2022-12-07T05:04:30;11.80;;;6.47;;
71048;SDS011;58704;53.358;-6.238;2022-12-07T05:06:55;11.73;;;5.73;;
71048;SDS011;58704;53.358;-6.238;2022-12-07T05:09:21;14.70;;;5.53;;
71048;SDS011;58704;53.358;-6.238;2022-12-07T05:11:46;9.48;;;5.20;;
71048;SDS011;58704;53.358;-6.238;2022-12-07T05:14:20;12.43;;;6.13;;
71048;SDS011;58704;53.358;-6.238;2022-12-07T05:17:00;11.05;;;6.00;;
71048;SDS011;58704;53.358;-6.238;2022-12-07T05:20:20;9.65;;;5.70;;
71048;SDS011;58704;53.358;-6.238;2022-12-07T05:22:51;10.45;;;6.00;;
71048;SDS011;58704;53.358;-6.238;2022-12-07T05:25:19;12.68;;;6.13;;
71048;SDS011;58704;53.358;-6.238;2022-12-07T05:27:45;13.90;;;5.90;;
71048;SDS011;58704;53.358;-6.238;2022-12-07T05:30:13;12.35;;;5.47;;
71048;SDS011;58704;53.358;-6.238;2022-12-07T05:38:58;14.13;;;5.97;;
71048;SDS011;58704;53.358;-6.238;2022-12-07T05:41:27;12.83;;;5.53;;
71048;SDS011;58704;53.358;-6.238;2022-12-07T05:44:13;11.10;;;4.93;;
71048;SDS011;58704;53.358;-6.238;2022-12-07T05:46:43;8.55;;;4.70;;
71048;SDS011;58704;53.358;-6.238;2022-12-07T05:49:08;9.63;;;4.67;;
71048;SDS011;58704;53.358;-6.238;2022-12-07T05:51:35;9.77;;;4.68;;
71048;SDS011;58704;53.358;-6.238;2022-12-07T07:40:13;15.60;;;5.95;;
71048;SDS011;58704;53.358;-6.238;2022-12-07T07:42:38;12.67;;;5.87;;
71048;SDS011;58704;53.358;-6.238;2022-12-07T07:45:04;14.70;;;5.30;;
71048;SDS011;58704;53.358;-6.238;2022-12-07T07:47:29;11.38;;;5.50;;
71048;SDS011;58704;53.358;-6.238;2022-12-07T07:49:55;17.03;;;5.33;;
71048;SDS011;58704;53.358;-6.238;2022-12-07T07:52:20;12.33;;;5.73;;
71048;SDS011;58704;53.358;-6.238;2022-12-07T07:54:46;10.43;;;4.97;;
71048;SDS011;58704;53.358;-6.238;2022-12-07T07:57:11;9.60;;;4.43;;
71048;SDS011;58704;53.358;-6.238;2022-12-07T07:59:37;18.27;;;5.57;;
71048;SDS011;58704;53.358;-6.238;2022-12-07T08:02:02;13.27;;;5.20;;
71048;SDS011;58704;53.358;-6.238;2022-12-07T08:04:28;12.27;;;5.10;;
71048;SDS011;58704;53.358;-6.238;2022-12-07T08:06:53;10.70;;;5.00;;
71048;SDS011;58704;53.358;-6.238;2022-12-07T08:09:19;9.80;;;4.43;;
71048;SDS011;58704;53.358;-6.238;2022-12-07T08:11:44;11.48;;;4.95;;
71048;SDS011;58704;53.358;-6.238;2022-12-07T08:14:10;18.10;;;6.23;;
71048;SDS011;58704;53.358;-6.238;2022-12-07T08:16:36;12.25;;;5.72;;
71048;SDS011;58704;53.358;-6.238;2022-12-07T08:19:04;11.50;;;5.10;;
71048;SDS011;58704;53.358;-6.238;2022-12-07T08:21:29;13.85;;;5.18;;
71048;SDS011;58704;53.358;-6.238;2022-12-07T08:23:56;10.40;;;5.37;;
71048;SDS011;58704;53.358;-6.238;2022-12-07T08:26:22;8.73;;;4.70;;
71048;SDS011;58704;53.358;-6.238;2022-12-07T08:28:48;13.00;;;5.43;;
71048;SDS011;58704;53.358;-6.238;2022-12-07T08:31:15;17.63;;;5.20;;
71048;SDS011;58704;53.358;-6.238;2022-12-07T08:33:41;9.43;;;4.93;;
71048;SDS011;58704;53.358;-6.238;2022-12-07T08:36:09;11.63;;;4.97;;
71048;SDS011;58704;53.358;-6.238;2022-12-07T08:38:35;12.52;;;4.70;;
71048;SDS011;58704;53.358;-6.238;2022-12-07T08:41:02;12.45;;;4.95;;
71048;SDS011;58704;53.358;-6.238;2022-12-07T08:43:28;12.23;;;5.45;;
71048;SDS011;58704;53.358;-6.238;2022-12-07T08:45:56;15.50;;;5.63;;
71048;SDS011;58704;53.358;-6.238;2022-12-07T08:48:23;8.18;;;4.53;;
71048;SDS011;58704;53.358;-6.238;2022-12-07T08:50:50;14.02;;;5.25;;
71048;SDS011;58704;53.358;-6.238;2022-12-07T08:53:16;11.17;;;5.57;;
71048;SDS011;58704;53.358;-6.238;2022-12-07T08:55:41;14.18;;;5.53;;
71048;SDS011;58704;53.358;-6.238;2022-12-07T08:58:07;15.67;;;5.80;;
71048;SDS011;58704;53.358;-6.238;2022-12-07T09:00:32;14.03;;;5.10;;
71048;SDS011;58704;53.358;-6.238;2022-12-07T09:02:57;17.87;;;6.03;;
71048;SDS011;58704;53.358;-6.238;2022-12-07T09:05:23;13.73;;;6.03;;
71048;SDS011;58704;53.358;-6.238;2022-12-07T09:07:49;13.60;;;5.33;;
71048;SDS011;58704;53.358;-6.238;2022-12-07T09:10:16;12.55;;;4.68;;
71048;SDS011;58704;53.358;-6.238;2022-12-07T09:12:42;11.77;;;4.23;;
71048;SDS011;58704;53.358;-6.238;2022-12-07T09:15:08;8.68;;;3.92;;
71048;SDS011;58704;53.358;-6.238;2022-12-07T09:17:34;14.30;;;4.20;;
71048;SDS011;58704;53.358;-6.238;2022-12-07T09:20:00;13.70;;;4.97;;
71048;SDS011;58704;53.358;-6.238;2022-12-07T09:22:29;11.07;;;5.53;;
71048;SDS011;58704;53.358;-6.238;2022-12-07T09:24:55;16.88;;;5.57;;
71048;SDS011;58704;53.358;-6.238;2022-12-07T09:27:22;11.50;;;4.95;;
71048;SDS011;58704;53.358;-6.238;2022-12-07T09:29:47;11.77;;;4.83;;
71048;SDS011;58704;53.358;-6.238;2022-12-07T09:32:12;15.60;;;5.07;;
71048;SDS011;58704;53.358;-6.238;2022-12-07T09:34:38;11.73;;;4.20;;
71048;SDS011;58704;53.358;-6.238;2022-12-07T09:37:03;12.27;;;4.87;;
71048;SDS011;58704;53.358;-6.238;2022-12-07T09:39:29;8.50;;;4.07;;
71048;SDS011;58704;53.358;-6.238;2022-12-07T09:41:54;10.20;;;5.30;;
71048;SDS011;58704;53.358;-6.238;2022-12-07T09:44:23;9.87;;;4.67;;
71048;SDS011;58704;53.358;-6.238;2022-12-07T09:46:49;14.23;;;5.72;;
71048;SDS011;58704;53.358;-6.238;2022-12-07T09:49:23;24.63;;;8.23;;
71048;SDS011;58704;53.358;-6.238;2022-12-07T09:54:35;20.13;;;8.45;;
71048;SDS011;58704;53.358;-6.238;2022-12-07T09:57:02;14.33;;;6.33;;
71048;SDS011;58704;53.358;-6.238;2022-12-07T09:59:28;14.60;;;6.72;;
71048;SDS011;58704;53.358;-6.238;2022-12-07T10:01:54;16.67;;;8.05;;
71048;SDS011;58704;53.358;-6.238;2022-12-07T10:04:24;16.98;;;6.30;;
71048;SDS011;58704;53.358;-6.238;2022-12-07T10:06:50;11.13;;;4.73;;
71048;SDS011;58704;53.358;-6.238;2022-12-07T10:09:17;10.45;;;4.50;;
71048;SDS011;58704;53.358;-6.238;2022-12-07T10:11:59;12.90;;;5.32;;
71048;SDS011;58704;53.358;-6.238;2022-12-07T10:14:26;14.25;;;6.38;;
71048;SDS011;58704;53.358;-6.238;2022-12-07T10:16:54;19.13;;;7.07;;
71048;SDS011;58704;53.358;-6.238;2022-12-07T10:19:27;19.33;;;7.18;;
71048;SDS011;58704;53.358;-6.238;2022-12-07T10:22:01;22.83;;;8.00;;
71048;SDS011;58704;53.358;-6.238;2022-12-07T10:24:37;17.60;;;5.95;;
71048;SDS011;58704;53.358;-6.238;2022-12-07T10:27:11;13.02;;;5.50;;
71048;SDS011;58704;53.358;-6.238;2022-12-07T10:29:51;12.27;;;5.20;;
71048;SDS011;58704;53.358;-6.238;2022-12-07T10:34:43;12.60;;;6.27;;
71048;SDS011;58704;53.358;-6.238;2022-12-07T10:39:45;14.23;;;6.45;;
71048;SDS011;58704;53.358;-6.238;2022-12-07T10:42:20;17.65;;;5.78;;
71048;SDS011;58704;53.358;-6.238;2022-12-07T10:44:50;13.43;;;4.93;;
71048;SDS011;58704;53.358;-6.238;2022-12-07T10:47:36;11.90;;;4.53;;
71048;SDS011;58704;53.358;-6.238;2022-12-07T10:53:33;12.82;;;5.00;;
71048;SDS011;58704;53.358;-6.238;2022-12-07T10:56:39;11.30;;;4.88;;
71048;SDS011;58704;53.358;-6.238;2022-12-07T11:02:07;9.00;;;4.25;;
71048;SDS011;58704;53.358;-6.238;2022-12-07T11:24:05;13.10;;;4.15;;
71048;SDS011;58704;53.358;-6.238;2022-12-07T11:27:04;9.07;;;4.07;;
71048;SDS011;58704;53.358;-6.238;2022-12-07T11:29:49;8.95;;;3.70;;
71048;SDS011;58704;53.358;-6.238;2022-12-07T11:34:51;9.60;;;3.80;;
71048;SDS011;58704;53.358;-6.238;2022-12-07T11:37:33;16.10;;;4.03;;
71048;SDS011;58704;53.358;-6.238;2022-12-07T11:40:14;9.27;;;4.32;;
71048;SDS011;58704;53.358;-6.238;2022-12-07T11:42:57;11.43;;;5.55;;
71048;SDS011;58704;53.358;-6.238;2022-12-07T11:45:34;11.63;;;4.25;;
71048;SDS011;58704;53.358;-6.238;2022-12-07T11:50:41;12.97;;;4.60;;
71048;SDS011;58704;53.358;-6.238;2022-12-07T12:03:40;9.45;;;4.05;;
71048;SDS011;58704;53.358;-6.238;2022-12-07T12:06:09;12.10;;;4.30;;
71048;SDS011;58704;53.358;-6.238;2022-12-07T12:08:46;10.90;;;4.10;;
71048;SDS011;58704;53.358;-6.238;2022-12-07T12:19:35;11.18;;;4.22;;
71048;SDS011;58704;53.358;-6.238;2022-12-07T12:22:18;10.32;;;4.03;;
71048;SDS011;58704;53.358;-6.238;2022-12-07T12:24:47;9.40;;;3.47;;
71048;SDS011;58704;53.358;-6.238;2022-12-07T12:27:23;7.55;;;3.50;;
71048;SDS011;58704;53.358;-6.238;2022-12-07T12:29:52;13.97;;;4.57;;
71048;SDS011;58704;53.358;-6.238;2022-12-07T12:35:27;9.23;;;3.20;;
71048;SDS011;58704;53.358;-6.238;2022-12-07T12:40:48;7.75;;;2.35;;
71048;SDS011;58704;53.358;-6.238;2022-12-07T12:49:40;4.27;;;0.93;;
71048;SDS011;58704;53.358;-6.238;2022-12-07T12:59:31;3.38;;;1.27;;
71048;SDS011;58704;53.358;-6.238;2022-12-07T13:23:27;3.75;;;1.25;;
71048;SDS011;58704;53.358;-6.238;2022-12-07T13:25:57;4.28;;;1.52;;
71048;SDS011;58704;53.358;-6.238;2022-12-07T13:28:25;3.95;;;1.45;;
71048;SDS011;58704;53.358;-6.238;2022-12-07T13:33:29;9.27;;;1.83;;
71048;SDS011;58704;53.358;-6.238;2022-12-07T13:35:55;7.82;;;1.63;;
71048;SDS011;58704;53.358;-6.238;2022-12-07T13:41:04;7.07;;;2.80;;
71048;SDS011;58704;53.358;-6.238;2022-12-07T13:44:13;4.88;;;1.80;;
71048;SDS011;58704;53.358;-6.238;2022-12-07T13:49:48;7.82;;;1.50;;
71048;SDS011;58704;53.358;-6.238;2022-12-07T13:57:25;3.95;;;1.75;;
71048;SDS011;58704;53.358;-6.238;2022-12-07T13:59:51;6.53;;;1.70;;
71048;SDS011;58704;53.358;-6.238;2022-12-07T14:02:22;7.20;;;1.70;;
71048;SDS011;58704;53.358;-6.238;2022-12-07T14:04:48;7.53;;;1.85;;
71048;SDS011;58704;53.358;-6.238;2022-12-07T14:07:19;3.17;;;1.47;;
71048;SDS011;58704;53.358;-6.238;2022-12-07T14:09:53;6.30;;;1.48;;
71048;SDS011;58704;53.358;-6.238;2022-12-07T14:12:20;3.75;;;1.50;;
71048;SDS011;58704;53.358;-6.238;2022-12-07T14:14:46;4.32;;;1.40;;
71048;SDS011;58704;53.358;-6.238;2022-12-07T14:17:20;3.57;;;2.13;;
71048;SDS011;58704;53.358;-6.238;2022-12-07T14:19:59;5.20;;;1.70;;
71048;SDS011;58704;53.358;-6.238;2022-12-07T14:22:27;3.83;;;1.00;;
71048;SDS011;58704;53.358;-6.238;2022-12-07T14:25:13;4.00;;;1.35;;
71048;SDS011;58704;53.358;-6.238;2022-12-07T14:27:50;9.85;;;2.17;;
71048;SDS011;58704;53.358;-6.238;2022-12-07T14:30:20;5.53;;;1.77;;
71048;SDS011;58704;53.358;-6.238;2022-12-07T14:32:47;4.07;;;1.60;;
71048;SDS011;58704;53.358;-6.238;2022-12-07T14:35:16;5.25;;;1.50;;
71048;SDS011;58704;53.358;-6.238;2022-12-07T14:37:43;7.63;;;2.87;;
71048;SDS011;58704;53.358;-6.238;2022-12-07T14:40:20;5.00;;;1.48;;
71048;SDS011;58704;53.358;-6.238;2022-12-07T14:42:48;4.78;;;1.50;;
71048;SDS011;58704;53.358;-6.238;2022-12-07T14:45:20;4.68;;;1.50;;
71048;SDS011;58704;53.358;-6.238;2022-12-07T14:47:46;7.30;;;2.30;;
71048;SDS011;58704;53.358;-6.238;2022-12-07T14:50:13;5.03;;;2.13;;
71048;SDS011;58704;53.358;-6.238;2022-12-07T14:52:40;11.57;;;2.50;;
71048;SDS011;58704;53.358;-6.238;2022-12-07T14:58:02;8.93;;;2.05;;
71048;SDS011;58704;53.358;-6.238;2022-12-07T15:00:27;11.70;;;2.03;;
71048;SDS011;58704;53.358;-6.238;2022-12-07T15:02:53;5.10;;;1.43;;
71048;SDS011;58704;53.358;-6.238;2022-12-07T15:05:19;14.75;;;4.60;;
71048;SDS011;58704;53.358;-6.238;2022-12-07T15:07:45;14.10;;;2.30;;
71048;SDS011;58704;53.358;-6.238;2022-12-07T15:10:22;10.02;;;2.50;;
71048;SDS011;58704;53.358;-6.238;2022-12-07T15:12:49;4.90;;;2.00;;
71048;SDS011;58704;53.358;-6.238;2022-12-07T15:15:14;6.68;;;1.63;;
71048;SDS011;58704;53.358;-6.238;2022-12-07T15:17:40;9.77;;;1.90;;
71048;SDS011;58704;53.358;-6.238;2022-12-07T15:20:07;7.95;;;1.90;;
71048;SDS011;58704;53.358;-6.238;2022-12-07T15:22:36;7.65;;;2.50;;
71048;SDS011;58704;53.358;-6.238;2022-12-07T15:25:01;8.70;;;2.80;;
71048;SDS011;58704;53.358;-6.238;2022-12-07T15:27:29;14.85;;;2.50;;
71048;SDS011;58704;53.358;-6.238;2022-12-07T15:29:55;6.00;;;2.40;;
71048;SDS011;58704;53.358;-6.238;2022-12-07T15:32:20;7.93;;;2.50;;
71048;SDS011;58704;53.358;-6.238;2022-12-07T15:34:47;7.67;;;2.70;;
71048;SDS011;58704;53.358;-6.238;2022-12-07T15:37:13;3.78;;;2.25;;
71048;SDS011;58704;53.358;-6.238;2022-12-07T15:39:38;5.83;;;2.43;;
71048;SDS011;58704;53.358;-6.238;2022-12-07T15:42:04;12.67;;;5.87;;
71048;SDS011;58704;53.358;-6.238;2022-12-07T15:44:29;9.93;;;4.53;;
71048;SDS011;58704;53.358;-6.238;2022-12-07T15:47:13;11.43;;;3.63;;
71048;SDS011;58704;53.358;-6.238;2022-12-07T15:49:39;10.17;;;3.10;;
71048;SDS011;58704;53.358;-6.238;2022-12-07T15:52:04;11.30;;;3.40;;
71048;SDS011;58704;53.358;-6.238;2022-12-07T15:54:29;17.23;;;6.70;;
71048;SDS011;58704;53.358;-6.238;2022-12-07T15:56:57;11.68;;;5.43;;
71048;SDS011;58704;53.358;-6.238;2022-12-07T15:59:22;12.50;;;3.77;;
71048;SDS011;58704;53.358;-6.238;2022-12-07T16:01:48;10.65;;;3.88;;
71048;SDS011;58704;53.358;-6.238;2022-12-07T16:04:14;8.37;;;4.20;;
71048;SDS011;58704;53.358;-6.238;2022-12-07T16:06:39;8.02;;;3.42;;
71048;SDS011;58704;53.358;-6.238;2022-12-07T16:09:05;8.70;;;3.07;;
71048;SDS011;58704;53.358;-6.238;2022-12-07T16:11:31;9.90;;;2.65;;
71048;SDS011;58704;53.358;-6.238;2022-12-07T16:13:56;4.93;;;2.33;;
71048;SDS011;58704;53.358;-6.238;2022-12-07T16:16:22;6.57;;;3.13;;
71048;SDS011;58704;53.358;-6.238;2022-12-07T16:18:48;8.37;;;3.70;;
71048;SDS011;58704;53.358;-6.238;2022-12-07T16:21:14;7.18;;;4.10;;
71048;SDS011;58704;53.358;-6.238;2022-12-07T16:23:40;12.10;;;6.63;;
71048;SDS011;58704;53.358;-6.238;2022-12-07T16:28:38;58.00;;;32.67;;
71048;SDS011;58704;53.358;-6.238;2022-12-07T16:31:05;43.87;;;23.03;;
71048;SDS011;58704;53.358;-6.238;2022-12-07T16:33:34;115.13;;;59.95;;
71048;SDS011;58704;53.358;-6.238;2022-12-07T16:36:00;82.07;;;40.40;;
71048;SDS011;58704;53.358;-6.238;2022-12-07T16:38:26;49.90;;;25.63;;
71048;SDS011;58704;53.358;-6.238;2022-12-07T16:40:52;52.20;;;33.13;;
71048;SDS011;58704;53.358;-6.238;2022-12-07T16:43:18;37.42;;;24.40;;
71048;SDS011;58704;53.358;-6.238;2022-12-07T16:45:44;39.17;;;26.87;;
71048;SDS011;58704;53.358;-6.238;2022-12-07T16:48:11;26.10;;;17.70;;
71048;SDS011;58704;53.358;-6.238;2022-12-07T16:50:38;35.00;;;24.25;;
71048;SDS011;58704;53.358;-6.238;2022-12-07T16:53:05;34.93;;;23.67;;
71048;SDS011;58704;53.358;-6.238;2022-12-07T16:55:30;18.60;;;13.45;;
71048;SDS011;58704;53.358;-6.238;2022-12-07T16:57:56;44.87;;;28.97;;
71048;SDS011;58704;53.358;-6.238;2022-12-07T17:00:21;31.93;;;20.87;;
71048;SDS011;58704;53.358;-6.238;2022-12-07T17:02:46;28.20;;;18.03;;
71048;SDS011;58704;53.358;-6.238;2022-12-07T17:05:12;25.85;;;16.67;;
71048;SDS011;58704;53.358;-6.238;2022-12-07T17:07:37;19.57;;;10.27;;
71048;SDS011;58704;53.358;-6.238;2022-12-07T17:10:03;21.07;;;11.80;;
71048;SDS011;58704;53.358;-6.238;2022-12-07T17:12:29;20.25;;;12.88;;
71048;SDS011;58704;53.358;-6.238;2022-12-07T17:14:54;22.80;;;13.60;;
71048;SDS011;58704;53.358;-6.238;2022-12-07T17:17:38;24.67;;;11.48;;
71048;SDS011;58704;53.358;-6.238;2022-12-07T17:20:04;17.70;;;9.47;;
71048;SDS011;58704;53.358;-6.238;2022-12-07T17:22:30;15.85;;;10.18;;
71048;SDS011;58704;53.358;-6.238;2022-12-07T17:24:55;14.70;;;7.93;;
71048;SDS011;58704;53.358;-6.238;2022-12-07T17:27:21;17.88;;;9.10;;
71048;SDS011;58704;53.358;-6.238;2022-12-07T17:29:46;17.97;;;10.50;;
71048;SDS011;58704;53.358;-6.238;2022-12-07T17:32:12;25.37;;;14.63;;
71048;SDS011;58704;53.358;-6.238;2022-12-07T17:34:37;24.90;;;15.65;;
71048;SDS011;58704;53.358;-6.238;2022-12-07T17:37:02;21.57;;;11.67;;
71048;SDS011;58704;53.358;-6.238;2022-12-07T17:39:28;25.33;;;12.23;;
71048;SDS011;58704;53.358;-6.238;2022-12-07T17:41:54;20.15;;;9.88;;
71048;SDS011;58704;53.358;-6.238;2022-12-07T17:44:38;18.75;;;10.10;;
71048;SDS011;58704;53.358;-6.238;2022-12-07T17:47:03;28.83;;;16.07;;
71048;SDS011;58704;53.358;-6.238;2022-12-07T17:49:30;24.35;;;15.57;;
71048;SDS011;58704;53.358;-6.238;2022-12-07T17:51:55;29.27;;;18.60;;
71048;SDS011;58704;53.358;-6.238;2022-12-07T17:54:39;26.38;;;18.15;;
71048;SDS011;58704;53.358;-6.238;2022-12-07T17:57:05;28.17;;;15.90;;
71048;SDS011;58704;53.358;-6.238;2022-12-07T17:59:36;24.27;;;12.87;;
71048;SDS011;58704;53.358;-6.238;2022-12-07T18:02:01;24.02;;;13.48;;
71048;SDS011;58704;53.358;-6.238;2022-12-07T18:04:27;22.10;;;10.33;;
71048;SDS011;58704;53.358;-6.238;2022-12-07T18:06:55;21.55;;;10.68;;
71048;SDS011;58704;53.358;-6.238;2022-12-07T18:09:23;19.10;;;10.53;;
71048;SDS011;58704;53.358;-6.238;2022-12-07T18:11:48;22.20;;;10.38;;
71048;SDS011;58704;53.358;-6.238;2022-12-07T18:14:14;23.10;;;12.87;;
71048;SDS011;58704;53.358;-6.238;2022-12-07T18:16:40;28.77;;;13.30;;
71048;SDS011;58704;53.358;-6.238;2022-12-07T18:19:06;25.33;;;13.83;;
71048;SDS011;58704;53.358;-6.238;2022-12-07T18:21:33;34.70;;;16.65;;
71048;SDS011;58704;53.358;-6.238;2022-12-07T18:23:59;38.25;;;18.88;;
71048;SDS011;58704;53.358;-6.238;2022-12-07T18:26:26;35.97;;;17.58;;
71048;SDS011;58704;53.358;-6.238;2022-12-07T18:28:52;31.83;;;15.47;;
71048;SDS011;58704;53.358;-6.238;2022-12-07T18:31:18;27.15;;;14.13;;
71048;SDS011;58704;53.358;-6.238;2022-12-07T18:33:44;58.22;;;22.15;;
71048;SDS011;58704;53.358;-6.238;2022-12-07T18:36:10;53.38;;;21.08;;
71048;SDS011;58704;53.358;-6.238;2022-12-07T18:38:40;35.63;;;14.60;;
71048;SDS011;58704;53.358;-6.238;2022-12-07T18:41:06;31.27;;;16.05;;
71048;SDS011;58704;53.358;-6.238;2022-12-07T18:43:32;35.10;;;21.35;;
71048;SDS011;58704;53.358;-6.238;2022-12-07T18:45:58;28.77;;;15.03;;
71048;SDS011;58704;53.358;-6.238;2022-12-07T18:48:23;27.00;;;13.77;;
71048;SDS011;58704;53.358;-6.238;2022-12-07T18:50:59;38.13;;;18.73;;
71048;SDS011;58704;53.358;-6.238;2022-12-07T18:53:28;32.60;;;17.80;;
71048;SDS011;58704;53.358;-6.238;2022-12-07T18:56:05;35.67;;;17.13;;
71048;SDS011;58704;53.358;-6.238;2022-12-07T18:58:31;25.50;;;13.55;;
71048;SDS011;58704;53.358;-6.238;2022-12-07T19:00:58;26.90;;;13.68;;
71048;SDS011;58704;53.358;-6.238;2022-12-07T19:03:23;27.80;;;14.30;;
71048;SDS011;58704;53.358;-6.238;2022-12-07T19:05:49;26.02;;;14.18;;
71048;SDS011;58704;53.358;-6.238;2022-12-07T19:08:15;24.05;;;15.30;;
71048;SDS011;58704;53.358;-6.238;2022-12-07T19:10:41;23.07;;;11.67;;
71048;SDS011;58704;53.358;-6.238;2022-12-07T19:13:06;24.53;;;12.83;;
71048;SDS011;58704;53.358;-6.238;2022-12-07T19:15:32;23.42;;;12.73;;
71048;SDS011;58704;53.358;-6.238;2022-12-07T19:17:57;25.13;;;12.67;;
71048;SDS011;58704;53.358;-6.238;2022-12-07T19:20:23;22.63;;;11.23;;
71048;SDS011;58704;53.358;-6.238;2022-12-07T19:22:48;25.35;;;13.48;;
71048;SDS011;58704;53.358;-6.238;2022-12-07T19:25:14;29.70;;;13.23;;
71048;SDS011;58704;53.358;-6.238;2022-12-07T19:27:39;64.20;;;22.87;;
71048;SDS011;58704;53.358;-6.238;2022-12-07T19:30:05;61.00;;;22.17;;
71048;SDS011;58704;53.358;-6.238;2022-12-07T19:32:33;54.30;;;21.83;;
71048;SDS011;58704;53.358;-6.238;2022-12-07T19:34:59;56.78;;;24.33;;
71048;SDS011;58704;53.358;-6.238;2022-12-07T19:37:25;27.13;;;16.57;;
71048;SDS011;58704;53.358;-6.238;2022-12-07T19:39:50;29.30;;;16.08;;
71048;SDS011;58704;53.358;-6.238;2022-12-07T19:42:16;24.13;;;13.30;;
71048;SDS011;58704;53.358;-6.238;2022-12-07T19:44:41;24.93;;;16.23;;
71048;SDS011;58704;53.358;-6.238;2022-12-07T19:47:07;28.40;;;14.13;;
71048;SDS011;58704;53.358;-6.238;2022-12-07T19:49:33;28.07;;;14.47;;
71048;SDS011;58704;53.358;-6.238;2022-12-07T19:52:00;26.75;;;14.98;;
71048;SDS011;58704;53.358;-6.238;2022-12-07T19:54:28;29.83;;;15.50;;
71048;SDS011;58704;53.358;-6.238;2022-12-07T19:56:54;29.45;;;14.18;;
71048;SDS011;58704;53.358;-6.238;2022-12-07T19:59:21;27.20;;;13.53;;
71048;SDS011;58704;53.358;-6.238;2022-12-07T20:01:48;23.08;;;13.02;;
71048;SDS011;58704;53.358;-6.238;2022-12-07T20:04:15;28.13;;;14.43;;
71048;SDS011;58704;53.358;-6.238;2022-12-07T20:06:46;31.92;;;13.93;;
71048;SDS011;58704;53.358;-6.238;2022-12-07T20:09:13;36.13;;;16.02;;
71048;SDS011;58704;53.358;-6.238;2022-12-07T20:11:38;178.33;;;82.90;;
71048;SDS011;58704;53.358;-6.238;2022-12-07T20:14:22;106.45;;;41.88;;
71048;SDS011;58704;53.358;-6.238;2022-12-07T20:16:48;58.93;;;25.70;;
71048;SDS011;58704;53.358;-6.238;2022-12-07T20:19:14;79.97;;;37.08;;
71048;SDS011;58704;53.358;-6.238;2022-12-07T20:21:40;42.67;;;21.50;;
71048;SDS011;58704;53.358;-6.238;2022-12-07T20:24:06;38.33;;;20.00;;
71048;SDS011;58704;53.358;-6.238;2022-12-07T20:26:35;56.63;;;19.65;;
71048;SDS011;58704;53.358;-6.238;2022-12-07T20:29:04;28.02;;;15.60;;
71048;SDS011;58704;53.358;-6.238;2022-12-07T20:31:34;31.15;;;18.02;;
71048;SDS011;58704;53.358;-6.238;2022-12-07T20:33:59;33.63;;;18.83;;
71048;SDS011;58704;53.358;-6.238;2022-12-07T20:36:25;30.83;;;15.50;;
71048;SDS011;58704;53.358;-6.238;2022-12-07T20:38:51;27.15;;;14.68;;
71048;SDS011;58704;53.358;-6.238;2022-12-07T20:41:17;30.67;;;15.68;;
71048;SDS011;58704;53.358;-6.238;2022-12-07T20:44:01;24.88;;;13.60;;
71048;SDS011;58704;53.358;-6.238;2022-12-07T20:46:27;27.43;;;15.10;;
71048;SDS011;58704;53.358;-6.238;2022-12-07T20:48:52;28.13;;;16.23;;
71048;SDS011;58704;53.358;-6.238;2022-12-07T20:51:18;31.13;;;16.40;;
71048;SDS011;58704;53.358;-6.238;2022-12-07T20:53:44;27.47;;;15.87;;
71048;SDS011;58704;53.358;-6.238;2022-12-07T20:56:16;28.90;;;15.25;;
71048;SDS011;58704;53.358;-6.238;2022-12-07T20:58:43;27.33;;;15.38;;
71048;SDS011;58704;53.358;-6.238;2022-12-07T21:01:08;33.67;;;20.10;;
71048;SDS011;58704;53.358;-6.238;2022-12-07T21:03:34;27.30;;;17.00;;
71048;SDS011;58704;53.358;-6.238;2022-12-07T21:06:02;30.17;;;15.53;;
71048;SDS011;58704;53.358;-6.238;2022-12-07T21:08:28;31.13;;;15.98;;
71048;SDS011;58704;53.358;-6.238;2022-12-07T21:10:53;36.33;;;18.30;;
71048;SDS011;58704;53.358;-6.238;2022-12-07T21:13:19;28.63;;;15.07;;
71048;SDS011;58704;53.358;-6.238;2022-12-07T21:15:44;31.10;;;16.07;;
71048;SDS011;58704;53.358;-6.238;2022-12-07T21:18:09;35.47;;;15.57;;
71048;SDS011;58704;53.358;-6.238;2022-12-07T21:20:35;35.30;;;16.20;;
71048;SDS011;58704;53.358;-6.238;2022-12-07T21:23:00;34.93;;;15.47;;
71048;SDS011;58704;53.358;-6.238;2022-12-07T21:25:26;35.72;;;17.05;;
71048;SDS011;58704;53.358;-6.238;2022-12-07T21:27:51;27.93;;;15.23;;
71048;SDS011;58704;53.358;-6.238;2022-12-07T21:30:17;24.13;;;12.07;;
71048;SDS011;58704;53.358;-6.238;2022-12-07T21:32:45;28.25;;;13.52;;
71048;SDS011;58704;53.358;-6.238;2022-12-07T21:35:10;27.63;;;15.97;;
71048;SDS011;58704;53.358;-6.238;2022-12-07T21:37:36;32.03;;;17.02;;
71048;SDS011;58704;53.358;-6.238;2022-12-07T21:40:02;24.20;;;13.00;;
71048;SDS011;58704;53.358;-6.238;2022-12-07T21:42:27;22.38;;;13.13;;
71048;SDS011;58704;53.358;-6.238;2022-12-07T21:44:53;26.30;;;15.57;;
71048;SDS011;58704;53.358;-6.238;2022-12-07T21:47:18;24.10;;;11.80;;
71048;SDS011;58704;53.358;-6.238;2022-12-07T21:49:43;26.70;;;14.83;;
71048;SDS011;58704;53.358;-6.238;2022-12-07T21:52:09;23.98;;;12.48;;
71048;SDS011;58704;53.358;-6.238;2022-12-07T21:54:34;24.43;;;12.07;;
71048;SDS011;58704;53.358;-6.238;2022-12-07T21:57:00;20.63;;;11.07;;
71048;SDS011;58704;53.358;-6.238;2022-12-07T21:59:26;22.15;;;11.43;;
71048;SDS011;58704;53.358;-6.238;2022-12-07T22:01:51;20.60;;;10.80;;
71048;SDS011;58704;53.358;-6.238;2022-12-07T22:04:18;23.40;;;11.93;;